EZY3485 EGGP-LGKO
Flight info
| Callsign | EZY3485 |
|---|---|
| Flight time | 3h 38m |
| Altitude | 35000 |
| Route | BARTN L975 DESIG L603 DOLAS DCT NAVPI DCT DODEN/N0453F370 DCT NEGIX DCT DINKU DCT BESNI DCT LATLO DCT OBEDI DCT BERTA DCT TEBLI DCT TIVNU DCT MEDUX UM867 KOGAT DCT ERANA UL737 TSL UN130 MES UN139 LURUS L995 KOPAR |
| Aircraft | A319/M-SDE3FGHIRWY/LB1 |
Departure
| Time | 2026-04-29 11:17 |
|---|---|
| Airport | Liverpool John Lennon Airport (EGGP) |
Arrival
| Time | 2026-04-29 14:56 |
|---|---|
| Airport | Kos International Airport "Ippokratis" (LGKO) |
| Time | Latitude | Longitude | Altitude | Speed | Heading |
|---|---|---|---|---|---|
| 2026-04-29 10:18 | 53.33643 | -2.84950 | 87 ft | 0 kts | 85° |
| 2026-04-29 11:09 | 53.33642 | -2.84956 | 85 ft | 3 kts | 85° |
| 2026-04-29 11:09 | 53.33641 | -2.84990 | 87 ft | 3 kts | 91° |
| 2026-04-29 11:10 | 53.33642 | -2.85024 | 89 ft | 3 kts | 100° |
| 2026-04-29 11:10 | 53.33648 | -2.85055 | 86 ft | 3 kts | 122° |
| 2026-04-29 11:10 | 53.33655 | -2.85071 | 89 ft | 3 kts | 151° |
| 2026-04-29 11:10 | 53.33663 | -2.85077 | 89 ft | 0 kts | 175° |
| 2026-04-29 11:12 | 53.33662 | -2.85077 | 89 ft | 0 kts | 175° |
| 2026-04-29 11:12 | 53.33647 | -2.85074 | 89 ft | 5 kts | 174° |
| 2026-04-29 11:13 | 53.33606 | -2.85069 | 85 ft | 6 kts | 175° |
| 2026-04-29 11:13 | 53.33563 | -2.85062 | 85 ft | 7 kts | 174° |
| 2026-04-29 11:13 | 53.33523 | -2.85116 | 84 ft | 10 kts | 252° |
| 2026-04-29 11:13 | 53.33517 | -2.85249 | 84 ft | 13 kts | 266° |
| 2026-04-29 11:14 | 53.33509 | -2.85415 | 88 ft | 16 kts | 265° |
| 2026-04-29 11:14 | 53.33500 | -2.85615 | 84 ft | 18 kts | 265° |
| 2026-04-29 11:14 | 53.33489 | -2.85843 | 84 ft | 21 kts | 265° |
| 2026-04-29 11:14 | 53.33478 | -2.86083 | 84 ft | 20 kts | 265° |
| 2026-04-29 11:15 | 53.33466 | -2.86316 | 86 ft | 20 kts | 265° |
| 2026-04-29 11:15 | 53.33456 | -2.86549 | 80 ft | 22 kts | 266° |
| 2026-04-29 11:15 | 53.33418 | -2.86711 | 76 ft | 13 kts | 221° |
| 2026-04-29 11:15 | 53.33336 | -2.86714 | 69 ft | 12 kts | 147° |
| 2026-04-29 11:16 | 53.33289 | -2.86630 | 75 ft | 9 kts | 111° |
| 2026-04-29 11:16 | 53.33293 | -2.86516 | 75 ft | 12 kts | 85° |
| 2026-04-29 11:16 | 53.33311 | -2.86134 | 71 ft | 65 kts | 85° |
| 2026-04-29 11:16 | 53.33359 | -2.85036 | 79 ft | 123 kts | 85° |
| 2026-04-29 11:17 | 53.33434 | -2.83492 | 493 ft | 134 kts | 85° |
| 2026-04-29 11:17 | 53.33523 | -2.81883 | 1013 ft | 146 kts | 85° |
| 2026-04-29 11:17 | 53.33708 | -2.80132 | 1460 ft | 162 kts | 72° |
| 2026-04-29 11:17 | 53.34400 | -2.78517 | 1894 ft | 185 kts | 46° |
| 2026-04-29 11:18 | 53.35669 | -2.77529 | 2247 ft | 223 kts | 14° |
| 2026-04-29 11:18 | 53.37338 | -2.77549 | 2639 ft | 254 kts | 3° |
| 2026-04-29 11:18 | 53.39131 | -2.77636 | 3455 ft | 261 kts | 5° |
| 2026-04-29 11:18 | 53.40965 | -2.77631 | 4301 ft | 265 kts | 13° |
| 2026-04-29 11:19 | 53.42612 | -2.76519 | 5051 ft | 253 kts | 47° |
| 2026-04-29 11:19 | 53.43586 | -2.74181 | 5831 ft | 243 kts | 77° |
| 2026-04-29 11:19 | 53.43936 | -2.71407 | 6658 ft | 245 kts | 83° |
| 2026-04-29 11:19 | 53.44252 | -2.68558 | 7448 ft | 251 kts | 83° |
| 2026-04-29 11:20 | 53.44567 | -2.65663 | 8275 ft | 254 kts | 83° |
| 2026-04-29 11:20 | 53.44885 | -2.62726 | 9103 ft | 257 kts | 82° |
| 2026-04-29 11:20 | 53.45207 | -2.59761 | 9939 ft | 260 kts | 82° |
| 2026-04-29 11:20 | 53.45537 | -2.56748 | 10666 ft | 266 kts | 81° |
| 2026-04-29 11:21 | 53.45883 | -2.53554 | 10909 ft | 290 kts | 82° |
| 2026-04-29 11:21 | 53.46258 | -2.50093 | 11095 ft | 313 kts | 81° |
| 2026-04-29 11:21 | 53.46664 | -2.46362 | 11272 ft | 334 kts | 81° |
| 2026-04-29 11:21 | 53.47087 | -2.42471 | 11771 ft | 343 kts | 81° |
| 2026-04-29 11:22 | 53.47514 | -2.38556 | 12431 ft | 346 kts | 81° |
| 2026-04-29 11:22 | 53.47950 | -2.34565 | 13144 ft | 348 kts | 81° |
| 2026-04-29 11:22 | 53.48386 | -2.30557 | 13838 ft | 351 kts | 82° |
| 2026-04-29 11:22 | 53.48821 | -2.26506 | 14497 ft | 353 kts | 82° |
| 2026-04-29 11:23 | 53.49252 | -2.22432 | 15108 ft | 356 kts | 82° |
| 2026-04-29 11:23 | 53.49684 | -2.18331 | 15697 ft | 358 kts | 82° |
| 2026-04-29 11:23 | 53.50119 | -2.14186 | 16281 ft | 361 kts | 82° |
| 2026-04-29 11:23 | 53.50559 | -2.10001 | 16870 ft | 364 kts | 82° |
| 2026-04-29 11:24 | 53.51000 | -2.05798 | 17431 ft | 367 kts | 82° |
| 2026-04-29 11:24 | 53.51444 | -2.01550 | 17943 ft | 372 kts | 82° |
| 2026-04-29 11:24 | 53.51894 | -1.97250 | 18482 ft | 376 kts | 82° |
| 2026-04-29 11:24 | 53.52310 | -1.92890 | 18970 ft | 378 kts | 85° |
| 2026-04-29 11:25 | 53.52317 | -1.88467 | 19430 ft | 380 kts | 96° |
| 2026-04-29 11:25 | 53.51827 | -1.84154 | 19897 ft | 383 kts | 105° |
| 2026-04-29 11:25 | 53.51063 | -1.79862 | 20357 ft | 385 kts | 106° |
| 2026-04-29 11:25 | 53.50300 | -1.75539 | 20820 ft | 387 kts | 106° |
| 2026-04-29 11:26 | 53.48765 | -1.66799 | 21728 ft | 392 kts | 106° |
| 2026-04-29 11:26 | 53.47987 | -1.62402 | 22165 ft | 394 kts | 106° |
| 2026-04-29 11:26 | 53.47203 | -1.57981 | 22586 ft | 397 kts | 106° |
| 2026-04-29 11:27 | 53.46413 | -1.53536 | 22991 ft | 399 kts | 106° |
| 2026-04-29 11:27 | 53.45612 | -1.49056 | 23360 ft | 402 kts | 106° |
| 2026-04-29 11:27 | 53.44801 | -1.44543 | 23755 ft | 405 kts | 106° |
| 2026-04-29 11:27 | 53.43983 | -1.40009 | 24123 ft | 407 kts | 106° |
| 2026-04-29 11:28 | 53.43156 | -1.35456 | 24455 ft | 409 kts | 106° |
| 2026-04-29 11:28 | 53.42322 | -1.30872 | 24787 ft | 411 kts | 106° |
| 2026-04-29 11:28 | 53.41487 | -1.26277 | 25115 ft | 413 kts | 106° |
| 2026-04-29 11:28 | 53.40653 | -1.21661 | 25448 ft | 415 kts | 106° |
| 2026-04-29 11:29 | 53.39812 | -1.17019 | 25777 ft | 416 kts | 106° |
| 2026-04-29 11:29 | 53.38968 | -1.12367 | 26095 ft | 418 kts | 106° |
| 2026-04-29 11:29 | 53.38127 | -1.07757 | 26397 ft | 420 kts | 106° |
| 2026-04-29 11:29 | 53.37270 | -1.03083 | 26701 ft | 421 kts | 107° |
| 2026-04-29 11:30 | 53.36403 | -0.98373 | 26971 ft | 424 kts | 107° |
| 2026-04-29 11:30 | 53.35531 | -0.93656 | 27243 ft | 426 kts | 107° |
| 2026-04-29 11:30 | 53.34652 | -0.88908 | 27519 ft | 427 kts | 107° |
| 2026-04-29 11:30 | 53.33769 | -0.84147 | 27800 ft | 429 kts | 107° |
| 2026-04-29 11:31 | 53.32880 | -0.79368 | 28082 ft | 431 kts | 107° |
| 2026-04-29 11:31 | 53.31988 | -0.74582 | 28449 ft | 430 kts | 107° |
| 2026-04-29 11:31 | 53.31096 | -0.69815 | 28879 ft | 429 kts | 107° |
| 2026-04-29 11:31 | 53.30209 | -0.65072 | 29287 ft | 428 kts | 107° |
| 2026-04-29 11:32 | 53.29322 | -0.60329 | 29708 ft | 427 kts | 107° |
| 2026-04-29 11:32 | 53.28435 | -0.55606 | 30125 ft | 425 kts | 107° |
| 2026-04-29 11:32 | 53.27545 | -0.50897 | 30553 ft | 424 kts | 107° |
| 2026-04-29 11:32 | 53.26656 | -0.46210 | 30905 ft | 423 kts | 107° |
| 2026-04-29 11:33 | 53.25765 | -0.41524 | 31271 ft | 422 kts | 107° |
| 2026-04-29 11:33 | 53.24880 | -0.36872 | 31655 ft | 420 kts | 107° |
| 2026-04-29 11:33 | 53.23997 | -0.32243 | 32079 ft | 417 kts | 107° |
| 2026-04-29 11:33 | 53.23115 | -0.27636 | 32475 ft | 415 kts | 107° |
| 2026-04-29 11:34 | 53.22238 | -0.23066 | 32871 ft | 412 kts | 107° |
| 2026-04-29 11:34 | 53.21367 | -0.18518 | 33250 ft | 411 kts | 107° |
| 2026-04-29 11:34 | 53.20499 | -0.13993 | 33634 ft | 409 kts | 107° |
| 2026-04-29 11:34 | 53.19631 | -0.09480 | 34005 ft | 408 kts | 107° |
| 2026-04-29 11:35 | 53.18764 | -0.04986 | 34391 ft | 406 kts | 107° |
| 2026-04-29 11:35 | 53.17899 | -0.00521 | 34711 ft | 405 kts | 107° |
| 2026-04-29 11:35 | 53.17031 | 0.03942 | 34989 ft | 405 kts | 107° |
| 2026-04-29 11:35 | 53.16161 | 0.08409 | 35246 ft | 405 kts | 107° |
| 2026-04-29 11:36 | 53.15299 | 0.12827 | 35392 ft | 407 kts | 107° |
| 2026-04-29 11:36 | 53.14420 | 0.17321 | 35429 ft | 408 kts | 107° |
| 2026-04-29 11:36 | 53.12654 | 0.26328 | 35430 ft | 409 kts | 107° |
| 2026-04-29 11:37 | 53.10881 | 0.35325 | 35432 ft | 409 kts | 107° |
| 2026-04-29 11:37 | 53.09097 | 0.44312 | 35430 ft | 409 kts | 107° |
| 2026-04-29 11:38 | 53.07311 | 0.53288 | 35429 ft | 409 kts | 107° |
| 2026-04-29 11:38 | 53.05512 | 0.62280 | 35414 ft | 410 kts | 107° |
| 2026-04-29 11:39 | 53.03707 | 0.71263 | 35407 ft | 410 kts | 107° |
| 2026-04-29 11:39 | 53.01893 | 0.80253 | 35410 ft | 411 kts | 107° |
| 2026-04-29 11:40 | 53.00082 | 0.89191 | 35435 ft | 411 kts | 107° |
| 2026-04-29 11:40 | 52.98248 | 0.98166 | 35436 ft | 410 kts | 107° |
| 2026-04-29 11:41 | 52.96350 | 1.07097 | 35434 ft | 410 kts | 108° |
| 2026-04-29 11:41 | 52.94328 | 1.15952 | 35432 ft | 411 kts | 109° |
| 2026-04-29 11:42 | 52.92289 | 1.24793 | 35419 ft | 410 kts | 109° |
| 2026-04-29 11:42 | 52.90264 | 1.33636 | 35426 ft | 411 kts | 109° |
| 2026-04-29 11:43 | 52.88235 | 1.42492 | 35428 ft | 411 kts | 109° |
| 2026-04-29 11:43 | 52.86210 | 1.51329 | 35423 ft | 411 kts | 109° |
| 2026-04-29 11:44 | 52.84173 | 1.60170 | 35416 ft | 411 kts | 109° |
| 2026-04-29 11:44 | 52.82129 | 1.69016 | 35411 ft | 412 kts | 109° |
| 2026-04-29 11:45 | 52.80074 | 1.77862 | 35411 ft | 413 kts | 109° |
| 2026-04-29 11:45 | 52.78022 | 1.86658 | 35410 ft | 412 kts | 109° |
| 2026-04-29 11:46 | 52.75953 | 1.95488 | 35407 ft | 412 kts | 109° |
| 2026-04-29 11:46 | 52.73870 | 2.04312 | 35409 ft | 413 kts | 109° |
| 2026-04-29 11:47 | 52.71783 | 2.13129 | 35408 ft | 413 kts | 109° |
| 2026-04-29 11:47 | 52.69691 | 2.21952 | 35401 ft | 413 kts | 109° |
| 2026-04-29 11:48 | 52.67591 | 2.30761 | 35397 ft | 413 kts | 109° |
| 2026-04-29 11:48 | 52.65490 | 2.39561 | 35396 ft | 413 kts | 109° |
| 2026-04-29 11:49 | 52.63379 | 2.48358 | 35386 ft | 413 kts | 109° |
| 2026-04-29 11:49 | 52.61256 | 2.57141 | 35393 ft | 413 kts | 109° |
| 2026-04-29 11:50 | 52.59125 | 2.65919 | 35386 ft | 413 kts | 109° |
| 2026-04-29 11:50 | 52.57005 | 2.74635 | 35384 ft | 413 kts | 109° |
| 2026-04-29 11:51 | 52.54856 | 2.83393 | 35384 ft | 414 kts | 111° |
| 2026-04-29 11:51 | 52.52145 | 2.91750 | 35374 ft | 415 kts | 116° |
| 2026-04-29 11:52 | 52.49360 | 3.00062 | 35379 ft | 415 kts | 115° |
| 2026-04-29 11:52 | 52.46572 | 3.08364 | 35375 ft | 416 kts | 115° |
| 2026-04-29 11:53 | 52.43778 | 3.16672 | 35365 ft | 416 kts | 115° |
| 2026-04-29 11:53 | 52.40971 | 3.24967 | 35356 ft | 416 kts | 116° |
| 2026-04-29 11:54 | 52.38160 | 3.33248 | 35351 ft | 416 kts | 116° |
| 2026-04-29 11:54 | 52.35347 | 3.41527 | 35348 ft | 416 kts | 116° |
| 2026-04-29 11:55 | 52.32524 | 3.49799 | 35353 ft | 416 kts | 115° |
| 2026-04-29 11:55 | 52.29695 | 3.58062 | 35344 ft | 417 kts | 115° |
| 2026-04-29 11:56 | 52.26855 | 3.66320 | 35338 ft | 417 kts | 115° |
| 2026-04-29 11:56 | 52.24010 | 3.74577 | 35343 ft | 417 kts | 115° |
| 2026-04-29 11:57 | 52.21154 | 3.82826 | 35332 ft | 418 kts | 116° |
| 2026-04-29 11:57 | 52.18308 | 3.91020 | 35339 ft | 418 kts | 116° |
| 2026-04-29 11:58 | 52.15441 | 3.99261 | 35336 ft | 419 kts | 115° |
| 2026-04-29 11:58 | 52.12564 | 4.07505 | 35332 ft | 419 kts | 116° |
| 2026-04-29 11:59 | 52.10141 | 4.14415 | 35323 ft | 420 kts | 116° |
| 2026-04-29 11:59 | 52.07238 | 4.22649 | 35322 ft | 420 kts | 116° |
| 2026-04-29 12:00 | 52.04346 | 4.30837 | 35324 ft | 420 kts | 116° |
| 2026-04-29 12:00 | 52.01435 | 4.39068 | 35341 ft | 420 kts | 116° |
| 2026-04-29 12:01 | 51.98027 | 4.48688 | 35342 ft | 421 kts | 116° |
| 2026-04-29 12:01 | 51.95601 | 4.55522 | 35353 ft | 421 kts | 116° |
| 2026-04-29 12:02 | 51.92661 | 4.63742 | 35346 ft | 421 kts | 116° |
| 2026-04-29 12:02 | 51.89715 | 4.71954 | 35316 ft | 422 kts | 116° |
| 2026-04-29 12:03 | 51.86762 | 4.80163 | 35317 ft | 422 kts | 116° |
| 2026-04-29 12:03 | 51.83799 | 4.88365 | 35332 ft | 423 kts | 116° |
| 2026-04-29 12:04 | 51.80826 | 4.96574 | 35326 ft | 423 kts | 116° |
| 2026-04-29 12:04 | 51.77849 | 5.04781 | 35320 ft | 423 kts | 116° |
| 2026-04-29 12:05 | 51.74863 | 5.12977 | 35320 ft | 423 kts | 116° |
| 2026-04-29 12:05 | 51.71870 | 5.21154 | 35318 ft | 423 kts | 116° |
| 2026-04-29 12:06 | 51.68895 | 5.29280 | 35317 ft | 423 kts | 116° |
| 2026-04-29 12:06 | 51.65894 | 5.37452 | 35333 ft | 424 kts | 116° |
| 2026-04-29 12:07 | 51.62876 | 5.45625 | 35323 ft | 425 kts | 116° |
| 2026-04-29 12:07 | 51.59846 | 5.53807 | 35317 ft | 426 kts | 116° |
| 2026-04-29 12:08 | 51.56811 | 5.61976 | 35316 ft | 426 kts | 116° |
| 2026-04-29 12:08 | 51.53762 | 5.70158 | 35318 ft | 426 kts | 116° |
| 2026-04-29 12:09 | 51.50716 | 5.78308 | 35341 ft | 426 kts | 116° |
| 2026-04-29 12:09 | 51.47653 | 5.86472 | 35328 ft | 427 kts | 116° |
| 2026-04-29 12:10 | 51.44605 | 5.94569 | 35336 ft | 427 kts | 116° |
| 2026-04-29 12:10 | 51.41527 | 6.02727 | 35334 ft | 428 kts | 116° |
| 2026-04-29 12:11 | 51.38442 | 6.10875 | 35327 ft | 428 kts | 117° |
| 2026-04-29 12:11 | 51.35351 | 6.19016 | 35318 ft | 428 kts | 117° |
| 2026-04-29 12:12 | 51.32255 | 6.27163 | 35336 ft | 429 kts | 116° |
| 2026-04-29 12:12 | 51.29144 | 6.35303 | 35332 ft | 429 kts | 116° |
| 2026-04-29 12:13 | 51.26017 | 6.43434 | 35328 ft | 430 kts | 116° |
| 2026-04-29 12:13 | 51.22885 | 6.51563 | 35327 ft | 430 kts | 116° |
| 2026-04-29 12:14 | 51.19748 | 6.59688 | 35325 ft | 430 kts | 116° |
| 2026-04-29 12:14 | 51.16607 | 6.67823 | 35346 ft | 431 kts | 116° |
| 2026-04-29 12:15 | 51.13461 | 6.75951 | 35340 ft | 431 kts | 117° |
| 2026-04-29 12:15 | 51.10292 | 6.84082 | 35323 ft | 432 kts | 117° |
| 2026-04-29 12:16 | 51.07113 | 6.92205 | 35315 ft | 433 kts | 117° |
| 2026-04-29 12:16 | 51.03928 | 7.00339 | 35304 ft | 433 kts | 117° |
| 2026-04-29 12:17 | 51.00748 | 7.08414 | 35306 ft | 434 kts | 117° |
| 2026-04-29 12:17 | 50.97543 | 7.16540 | 35316 ft | 434 kts | 117° |
| 2026-04-29 12:18 | 50.94329 | 7.24671 | 35314 ft | 435 kts | 117° |
| 2026-04-29 12:18 | 50.91101 | 7.32791 | 35309 ft | 435 kts | 117° |
| 2026-04-29 12:19 | 50.87870 | 7.40907 | 35313 ft | 435 kts | 117° |
| 2026-04-29 12:19 | 50.84634 | 7.49006 | 35318 ft | 436 kts | 117° |
| 2026-04-29 12:20 | 50.81383 | 7.57115 | 35329 ft | 436 kts | 117° |
| 2026-04-29 12:20 | 50.78125 | 7.65219 | 35312 ft | 437 kts | 117° |
| 2026-04-29 12:21 | 50.74861 | 7.73321 | 35314 ft | 437 kts | 117° |
| 2026-04-29 12:21 | 50.71595 | 7.81419 | 35311 ft | 437 kts | 117° |
| 2026-04-29 12:22 | 50.68327 | 7.89456 | 35310 ft | 438 kts | 117° |
| 2026-04-29 12:22 | 50.65039 | 7.97537 | 35330 ft | 438 kts | 117° |
| 2026-04-29 12:23 | 50.61742 | 8.05622 | 35326 ft | 439 kts | 117° |
| 2026-04-29 12:23 | 50.58138 | 8.13450 | 35316 ft | 444 kts | 123° |
| 2026-04-29 12:24 | 50.54269 | 8.21037 | 35310 ft | 445 kts | 123° |
| 2026-04-29 12:24 | 50.50405 | 8.28632 | 35312 ft | 445 kts | 123° |
| 2026-04-29 12:25 | 50.46539 | 8.36217 | 35331 ft | 445 kts | 123° |
| 2026-04-29 12:26 | 50.40700 | 8.47595 | 35305 ft | 447 kts | 124° |
| 2026-04-29 12:26 | 50.36761 | 8.55136 | 35293 ft | 449 kts | 126° |
| 2026-04-29 12:27 | 50.32540 | 8.62374 | 35286 ft | 451 kts | 129° |
| 2026-04-29 12:27 | 50.28173 | 8.69442 | 35277 ft | 452 kts | 129° |
| 2026-04-29 12:28 | 50.23852 | 8.76510 | 35269 ft | 453 kts | 129° |
| 2026-04-29 12:28 | 50.19548 | 8.83683 | 35271 ft | 453 kts | 129° |
| 2026-04-29 12:29 | 50.15243 | 8.90865 | 35271 ft | 453 kts | 129° |
| 2026-04-29 12:29 | 50.10924 | 8.98037 | 35275 ft | 454 kts | 129° |
| 2026-04-29 12:30 | 50.06589 | 9.05190 | 35277 ft | 454 kts | 129° |
| 2026-04-29 12:30 | 50.02246 | 9.12329 | 35273 ft | 455 kts | 130° |
| 2026-04-29 12:31 | 49.97887 | 9.19474 | 35284 ft | 457 kts | 130° |
| 2026-04-29 12:31 | 49.93503 | 9.26639 | 35259 ft | 458 kts | 130° |
| 2026-04-29 12:32 | 49.89108 | 9.33803 | 35261 ft | 458 kts | 130° |
| 2026-04-29 12:32 | 49.84704 | 9.40963 | 35261 ft | 459 kts | 130° |
| 2026-04-29 12:33 | 49.80297 | 9.48120 | 35265 ft | 459 kts | 131° |
| 2026-04-29 12:33 | 49.75876 | 9.55262 | 35267 ft | 461 kts | 131° |
| 2026-04-29 12:34 | 49.71423 | 9.62437 | 35252 ft | 463 kts | 131° |
| 2026-04-29 12:34 | 49.66989 | 9.69576 | 35247 ft | 464 kts | 131° |
| 2026-04-29 12:35 | 49.62515 | 9.76759 | 35238 ft | 465 kts | 131° |
| 2026-04-29 12:35 | 49.58022 | 9.83946 | 35235 ft | 465 kts | 131° |
| 2026-04-29 12:36 | 49.53519 | 9.91124 | 35242 ft | 466 kts | 133° |
| 2026-04-29 12:36 | 49.48982 | 9.98312 | 35218 ft | 470 kts | 133° |
| 2026-04-29 12:37 | 49.44419 | 10.05540 | 35217 ft | 472 kts | 133° |
| 2026-04-29 12:37 | 49.39869 | 10.12744 | 35222 ft | 473 kts | 133° |
| 2026-04-29 12:38 | 49.35273 | 10.19998 | 35229 ft | 474 kts | 133° |
| 2026-04-29 12:38 | 49.30655 | 10.27262 | 35252 ft | 475 kts | 133° |
| 2026-04-29 12:39 | 49.26033 | 10.34515 | 35245 ft | 476 kts | 135° |
| 2026-04-29 12:39 | 49.21369 | 10.41742 | 35236 ft | 478 kts | 135° |
| 2026-04-29 12:40 | 49.16595 | 10.48844 | 35236 ft | 479 kts | 136° |
| 2026-04-29 12:40 | 49.11780 | 10.55900 | 35255 ft | 480 kts | 136° |
| 2026-04-29 12:41 | 49.06963 | 10.62982 | 35255 ft | 481 kts | 136° |
| 2026-04-29 12:41 | 49.02187 | 10.70033 | 35251 ft | 482 kts | 137° |
| 2026-04-29 12:42 | 48.97364 | 10.77149 | 35253 ft | 483 kts | 137° |
| 2026-04-29 12:42 | 48.92519 | 10.84267 | 35236 ft | 485 kts | 137° |
| 2026-04-29 12:43 | 48.87653 | 10.91374 | 35226 ft | 485 kts | 137° |
| 2026-04-29 12:43 | 48.82785 | 10.98473 | 35220 ft | 486 kts | 137° |
| 2026-04-29 12:44 | 48.77900 | 11.05576 | 35220 ft | 487 kts | 137° |
| 2026-04-29 12:44 | 48.73005 | 11.12664 | 35197 ft | 488 kts | 138° |
| 2026-04-29 12:45 | 48.68088 | 11.19774 | 35206 ft | 489 kts | 138° |
| 2026-04-29 12:45 | 48.63187 | 11.26901 | 35215 ft | 489 kts | 136° |
| 2026-04-29 12:46 | 48.59306 | 11.33136 | 35212 ft | 490 kts | 133° |
| 2026-04-29 12:46 | 48.54807 | 11.40888 | 35229 ft | 491 kts | 132° |
| 2026-04-29 12:47 | 48.50296 | 11.48615 | 35192 ft | 491 kts | 134° |
| 2026-04-29 12:47 | 48.45693 | 11.56228 | 35192 ft | 492 kts | 135° |
| 2026-04-29 12:48 | 48.41048 | 11.63801 | 35199 ft | 493 kts | 135° |
| 2026-04-29 12:48 | 48.36402 | 11.71397 | 35216 ft | 493 kts | 134° |
| 2026-04-29 12:49 | 48.31767 | 11.79003 | 35213 ft | 494 kts | 134° |
| 2026-04-29 12:49 | 48.27121 | 11.86621 | 35213 ft | 494 kts | 134° |
| 2026-04-29 12:50 | 48.22467 | 11.94207 | 35211 ft | 494 kts | 135° |
| 2026-04-29 12:50 | 48.17806 | 12.01768 | 35209 ft | 494 kts | 135° |
| 2026-04-29 12:51 | 48.13128 | 12.09328 | 35218 ft | 495 kts | 135° |
| 2026-04-29 12:51 | 48.08445 | 12.16874 | 35208 ft | 495 kts | 135° |
| 2026-04-29 12:52 | 48.03757 | 12.24423 | 35209 ft | 495 kts | 135° |
| 2026-04-29 12:52 | 47.99062 | 12.31956 | 35210 ft | 495 kts | 135° |
| 2026-04-29 12:53 | 47.94381 | 12.39439 | 35175 ft | 496 kts | 135° |
| 2026-04-29 12:53 | 47.89671 | 12.46952 | 35177 ft | 497 kts | 135° |
| 2026-04-29 12:54 | 47.84950 | 12.54472 | 35178 ft | 497 kts | 135° |
| 2026-04-29 12:54 | 47.80219 | 12.61986 | 35188 ft | 497 kts | 135° |
| 2026-04-29 12:55 | 47.75487 | 12.69481 | 35189 ft | 497 kts | 135° |
| 2026-04-29 12:55 | 47.70748 | 12.76957 | 35178 ft | 497 kts | 136° |
| 2026-04-29 12:56 | 47.65966 | 12.84405 | 35182 ft | 499 kts | 137° |
| 2026-04-29 12:56 | 47.61045 | 12.91683 | 35184 ft | 499 kts | 139° |
| 2026-04-29 12:57 | 47.56078 | 12.98878 | 35174 ft | 499 kts | 139° |
| 2026-04-29 12:57 | 47.51131 | 13.06102 | 35183 ft | 500 kts | 138° |
| 2026-04-29 12:58 | 47.46208 | 13.13352 | 35128 ft | 500 kts | 139° |
| 2026-04-29 12:58 | 47.41296 | 13.20568 | 35138 ft | 501 kts | 139° |
| 2026-04-29 12:59 | 47.36344 | 13.27805 | 35130 ft | 501 kts | 139° |
| 2026-04-29 12:59 | 47.31347 | 13.35071 | 35137 ft | 501 kts | 139° |
| 2026-04-29 13:00 | 47.26485 | 13.42349 | 35141 ft | 502 kts | 137° |
| 2026-04-29 13:00 | 47.21629 | 13.49759 | 35137 ft | 502 kts | 137° |
| 2026-04-29 13:01 | 47.16755 | 13.57137 | 35116 ft | 502 kts | 138° |
| 2026-04-29 13:01 | 47.11862 | 13.64454 | 35134 ft | 502 kts | 138° |
| 2026-04-29 13:02 | 47.06958 | 13.71752 | 35148 ft | 502 kts | 138° |
| 2026-04-29 13:02 | 47.02044 | 13.79057 | 35155 ft | 503 kts | 138° |
| 2026-04-29 13:03 | 46.97126 | 13.86352 | 35149 ft | 503 kts | 138° |
| 2026-04-29 13:03 | 46.92201 | 13.93650 | 35162 ft | 503 kts | 138° |
| 2026-04-29 13:04 | 46.87272 | 14.00923 | 35185 ft | 503 kts | 138° |
| 2026-04-29 13:04 | 46.82337 | 14.08172 | 35194 ft | 503 kts | 138° |
| 2026-04-29 13:05 | 46.77429 | 14.15370 | 35205 ft | 504 kts | 138° |
| 2026-04-29 13:05 | 46.72488 | 14.22616 | 35210 ft | 504 kts | 138° |
| 2026-04-29 13:06 | 46.67536 | 14.29842 | 35193 ft | 504 kts | 138° |
| 2026-04-29 13:06 | 46.62581 | 14.37059 | 35205 ft | 504 kts | 138° |
| 2026-04-29 13:07 | 46.57619 | 14.44269 | 35206 ft | 504 kts | 138° |
| 2026-04-29 13:07 | 46.52642 | 14.51459 | 35205 ft | 504 kts | 139° |
| 2026-04-29 13:08 | 46.47668 | 14.58628 | 35207 ft | 504 kts | 139° |
| 2026-04-29 13:08 | 46.42750 | 14.65889 | 35202 ft | 506 kts | 135° |
| 2026-04-29 13:09 | 46.38172 | 14.73649 | 35218 ft | 507 kts | 131° |
| 2026-04-29 13:09 | 46.33729 | 14.81583 | 35221 ft | 507 kts | 132° |
| 2026-04-29 13:10 | 46.29207 | 14.89401 | 35229 ft | 507 kts | 133° |
| 2026-04-29 13:10 | 46.24603 | 14.97102 | 35233 ft | 506 kts | 134° |
| 2026-04-29 13:11 | 46.19983 | 15.04789 | 35235 ft | 507 kts | 134° |
| 2026-04-29 13:11 | 46.15381 | 15.12496 | 35215 ft | 507 kts | 133° |
| 2026-04-29 13:12 | 46.10782 | 15.20212 | 35230 ft | 507 kts | 133° |
| 2026-04-29 13:12 | 46.06176 | 15.27902 | 35240 ft | 507 kts | 133° |
| 2026-04-29 13:13 | 46.01557 | 15.35582 | 35239 ft | 507 kts | 134° |
| 2026-04-29 13:13 | 45.96936 | 15.43247 | 35243 ft | 507 kts | 134° |
| 2026-04-29 13:14 | 45.92310 | 15.50907 | 35241 ft | 507 kts | 134° |
| 2026-04-29 13:14 | 45.87678 | 15.58545 | 35225 ft | 507 kts | 134° |
| 2026-04-29 13:15 | 45.83037 | 15.66168 | 35240 ft | 507 kts | 134° |
| 2026-04-29 13:15 | 45.78427 | 15.73719 | 35245 ft | 507 kts | 134° |
| 2026-04-29 13:16 | 45.73779 | 15.81322 | 35249 ft | 507 kts | 134° |
| 2026-04-29 13:16 | 45.69127 | 15.88901 | 35255 ft | 506 kts | 134° |
| 2026-04-29 13:17 | 45.64480 | 15.96463 | 35243 ft | 507 kts | 134° |
| 2026-04-29 13:17 | 45.59820 | 16.04022 | 35237 ft | 507 kts | 134° |
| 2026-04-29 13:18 | 45.55153 | 16.11569 | 35234 ft | 507 kts | 134° |
| 2026-04-29 13:18 | 45.50481 | 16.19111 | 35240 ft | 507 kts | 134° |
| 2026-04-29 13:19 | 45.45825 | 16.26605 | 35234 ft | 508 kts | 134° |
| 2026-04-29 13:19 | 45.41140 | 16.34130 | 35232 ft | 508 kts | 134° |
| 2026-04-29 13:20 | 45.36447 | 16.41645 | 35203 ft | 508 kts | 134° |
| 2026-04-29 13:20 | 45.31747 | 16.49130 | 35235 ft | 508 kts | 134° |
| 2026-04-29 13:21 | 45.27043 | 16.56610 | 35231 ft | 508 kts | 135° |
| 2026-04-29 13:21 | 45.22333 | 16.64079 | 35232 ft | 508 kts | 135° |
| 2026-04-29 13:22 | 45.17637 | 16.71561 | 35230 ft | 508 kts | 134° |
| 2026-04-29 13:22 | 45.13005 | 16.79120 | 35225 ft | 508 kts | 133° |
| 2026-04-29 13:23 | 45.08415 | 16.86650 | 35213 ft | 508 kts | 134° |
| 2026-04-29 13:23 | 45.03786 | 16.94189 | 35212 ft | 507 kts | 134° |
| 2026-04-29 13:24 | 44.99130 | 17.01681 | 35196 ft | 507 kts | 134° |
| 2026-04-29 13:24 | 44.94409 | 17.09081 | 35192 ft | 506 kts | 136° |
| 2026-04-29 13:25 | 44.89439 | 17.16118 | 35186 ft | 505 kts | 139° |
| 2026-04-29 13:25 | 44.81851 | 17.26453 | 35179 ft | 505 kts | 139° |
| 2026-04-29 13:26 | 44.76865 | 17.33413 | 35212 ft | 508 kts | 138° |
| 2026-04-29 13:26 | 44.71818 | 17.40508 | 35195 ft | 515 kts | 138° |
| 2026-04-29 13:27 | 44.66725 | 17.47615 | 35197 ft | 516 kts | 139° |
| 2026-04-29 13:27 | 44.61655 | 17.54651 | 35197 ft | 516 kts | 139° |
| 2026-04-29 13:28 | 44.56541 | 17.61727 | 35196 ft | 515 kts | 139° |
| 2026-04-29 13:28 | 44.51440 | 17.68778 | 35183 ft | 514 kts | 139° |
| 2026-04-29 13:29 | 44.46337 | 17.75814 | 35178 ft | 514 kts | 139° |
| 2026-04-29 13:29 | 44.41229 | 17.82823 | 35165 ft | 515 kts | 139° |
| 2026-04-29 13:30 | 44.36117 | 17.89831 | 35172 ft | 515 kts | 139° |
| 2026-04-29 13:30 | 44.31002 | 17.96832 | 35151 ft | 515 kts | 139° |
| 2026-04-29 13:31 | 44.25881 | 18.03814 | 35158 ft | 514 kts | 139° |
| 2026-04-29 13:31 | 44.20791 | 18.10716 | 35151 ft | 514 kts | 139° |
| 2026-04-29 13:32 | 44.15673 | 18.17662 | 35150 ft | 514 kts | 139° |
| 2026-04-29 13:32 | 44.10550 | 18.24594 | 35124 ft | 514 kts | 139° |
| 2026-04-29 13:33 | 44.06259 | 18.30385 | 35100 ft | 513 kts | 139° |
| 2026-04-29 13:33 | 44.01135 | 18.37294 | 35099 ft | 513 kts | 139° |
| 2026-04-29 13:34 | 43.96011 | 18.44180 | 35098 ft | 512 kts | 139° |
| 2026-04-29 13:34 | 43.90887 | 18.51036 | 35095 ft | 512 kts | 139° |
| 2026-04-29 13:35 | 43.85756 | 18.57883 | 35096 ft | 512 kts | 139° |
| 2026-04-29 13:35 | 43.80630 | 18.64725 | 35092 ft | 511 kts | 139° |
| 2026-04-29 13:36 | 43.75505 | 18.71549 | 35087 ft | 511 kts | 139° |
| 2026-04-29 13:36 | 43.70406 | 18.78317 | 35069 ft | 511 kts | 139° |
| 2026-04-29 13:37 | 43.65261 | 18.85129 | 35068 ft | 512 kts | 139° |
| 2026-04-29 13:37 | 43.60113 | 18.91915 | 35046 ft | 512 kts | 139° |
| 2026-04-29 13:38 | 43.54956 | 18.98688 | 35042 ft | 512 kts | 139° |
| 2026-04-29 13:38 | 43.49811 | 19.05463 | 35051 ft | 512 kts | 139° |
| 2026-04-29 13:39 | 43.44652 | 19.12229 | 35056 ft | 512 kts | 139° |
| 2026-04-29 13:39 | 43.39491 | 19.18972 | 35057 ft | 512 kts | 139° |
| 2026-04-29 13:40 | 43.34331 | 19.25697 | 35046 ft | 511 kts | 139° |
| 2026-04-29 13:40 | 43.29164 | 19.32413 | 35067 ft | 511 kts | 139° |
| 2026-04-29 13:41 | 43.23999 | 19.39115 | 35075 ft | 511 kts | 139° |
| 2026-04-29 13:41 | 43.18833 | 19.45806 | 35076 ft | 511 kts | 140° |
| 2026-04-29 13:42 | 43.13662 | 19.52479 | 35073 ft | 511 kts | 140° |
| 2026-04-29 13:42 | 43.08516 | 19.59102 | 35060 ft | 511 kts | 140° |
| 2026-04-29 13:43 | 43.03339 | 19.65762 | 35052 ft | 511 kts | 139° |
| 2026-04-29 13:43 | 42.98155 | 19.72407 | 35053 ft | 511 kts | 140° |
| 2026-04-29 13:44 | 42.92955 | 19.79044 | 35058 ft | 512 kts | 140° |
| 2026-04-29 13:44 | 42.87754 | 19.85668 | 35065 ft | 512 kts | 140° |
| 2026-04-29 13:45 | 42.82547 | 19.92287 | 35062 ft | 512 kts | 140° |
| 2026-04-29 13:45 | 42.77328 | 19.98905 | 35069 ft | 512 kts | 140° |
| 2026-04-29 13:46 | 42.72458 | 20.05972 | 35069 ft | 514 kts | 131° |
| 2026-04-29 13:46 | 42.67953 | 20.13458 | 35070 ft | 514 kts | 131° |
| 2026-04-29 13:47 | 42.63401 | 20.20945 | 35067 ft | 514 kts | 131° |
| 2026-04-29 13:47 | 42.58844 | 20.28409 | 35053 ft | 513 kts | 131° |
| 2026-04-29 13:48 | 42.54292 | 20.35869 | 35057 ft | 513 kts | 131° |
| 2026-04-29 13:48 | 42.49747 | 20.43312 | 35060 ft | 513 kts | 131° |
| 2026-04-29 13:49 | 42.45203 | 20.50746 | 35065 ft | 512 kts | 131° |
| 2026-04-29 13:49 | 42.40645 | 20.58165 | 35061 ft | 512 kts | 132° |
| 2026-04-29 13:50 | 42.36075 | 20.65561 | 35071 ft | 512 kts | 132° |
| 2026-04-29 13:50 | 42.31515 | 20.72950 | 35070 ft | 512 kts | 131° |
| 2026-04-29 13:51 | 42.26945 | 20.80349 | 35055 ft | 511 kts | 131° |
| 2026-04-29 13:51 | 42.22377 | 20.87705 | 35059 ft | 511 kts | 131° |
| 2026-04-29 13:52 | 42.17802 | 20.95043 | 35054 ft | 511 kts | 131° |
| 2026-04-29 13:52 | 42.13228 | 21.02374 | 35044 ft | 511 kts | 132° |
| 2026-04-29 13:53 | 42.08371 | 21.09228 | 35032 ft | 509 kts | 139° |
| 2026-04-29 13:53 | 42.03219 | 21.15766 | 35015 ft | 509 kts | 139° |
| 2026-04-29 13:54 | 41.98065 | 21.22288 | 35032 ft | 508 kts | 139° |
| 2026-04-29 13:54 | 41.92922 | 21.28798 | 35026 ft | 508 kts | 139° |
| 2026-04-29 13:55 | 41.87782 | 21.35296 | 35021 ft | 507 kts | 139° |
| 2026-04-29 13:55 | 41.82634 | 21.41776 | 35021 ft | 507 kts | 139° |
| 2026-04-29 13:56 | 41.77487 | 21.48240 | 35016 ft | 507 kts | 139° |
| 2026-04-29 13:56 | 41.72337 | 21.54684 | 35009 ft | 506 kts | 139° |
| 2026-04-29 13:57 | 41.67192 | 21.61119 | 35013 ft | 506 kts | 139° |
| 2026-04-29 13:57 | 41.62050 | 21.67550 | 35021 ft | 506 kts | 139° |
| 2026-04-29 13:58 | 41.56900 | 21.73963 | 35023 ft | 506 kts | 139° |
| 2026-04-29 13:58 | 41.51739 | 21.80352 | 35030 ft | 506 kts | 139° |
| 2026-04-29 13:59 | 41.46585 | 21.86734 | 35009 ft | 505 kts | 139° |
| 2026-04-29 13:59 | 41.41431 | 21.93122 | 35016 ft | 505 kts | 139° |
| 2026-04-29 14:00 | 41.36310 | 21.99444 | 35022 ft | 505 kts | 139° |
| 2026-04-29 14:00 | 41.31146 | 22.05802 | 35029 ft | 505 kts | 139° |
| 2026-04-29 14:01 | 41.25977 | 22.12134 | 35040 ft | 505 kts | 139° |
| 2026-04-29 14:01 | 41.20815 | 22.18455 | 35038 ft | 505 kts | 139° |
| 2026-04-29 14:02 | 41.15635 | 22.24754 | 35046 ft | 504 kts | 140° |
| 2026-04-29 14:02 | 41.10275 | 22.30726 | 35057 ft | 503 kts | 143° |
| 2026-04-29 14:03 | 41.04778 | 22.36455 | 35058 ft | 502 kts | 144° |
| 2026-04-29 14:03 | 40.99303 | 22.42196 | 35058 ft | 502 kts | 143° |
| 2026-04-29 14:04 | 40.93879 | 22.48011 | 35057 ft | 502 kts | 143° |
| 2026-04-29 14:04 | 40.88470 | 22.53833 | 35068 ft | 501 kts | 143° |
| 2026-04-29 14:05 | 40.83056 | 22.59617 | 35074 ft | 500 kts | 143° |
| 2026-04-29 14:05 | 40.77670 | 22.65335 | 35075 ft | 500 kts | 143° |
| 2026-04-29 14:06 | 40.72249 | 22.71079 | 35071 ft | 500 kts | 143° |
| 2026-04-29 14:06 | 40.66801 | 22.76847 | 35078 ft | 499 kts | 143° |
| 2026-04-29 14:07 | 40.61422 | 22.82536 | 35091 ft | 499 kts | 143° |
| 2026-04-29 14:07 | 40.56004 | 22.88250 | 35095 ft | 499 kts | 143° |
| 2026-04-29 14:08 | 40.50583 | 22.93944 | 35096 ft | 499 kts | 143° |
| 2026-04-29 14:08 | 40.45232 | 22.99747 | 35096 ft | 500 kts | 137° |
| 2026-04-29 14:09 | 40.40438 | 23.06380 | 35092 ft | 501 kts | 135° |
| 2026-04-29 14:09 | 40.35634 | 23.13017 | 35096 ft | 501 kts | 135° |
| 2026-04-29 14:10 | 40.30823 | 23.19621 | 35085 ft | 501 kts | 135° |
| 2026-04-29 14:10 | 40.26014 | 23.26234 | 35081 ft | 501 kts | 135° |
| 2026-04-29 14:11 | 40.21240 | 23.32808 | 35078 ft | 501 kts | 135° |
| 2026-04-29 14:11 | 40.16433 | 23.39402 | 35071 ft | 501 kts | 135° |
| 2026-04-29 14:12 | 40.11609 | 23.45994 | 35089 ft | 500 kts | 135° |
| 2026-04-29 14:12 | 40.06792 | 23.52549 | 35090 ft | 500 kts | 135° |
| 2026-04-29 14:13 | 40.01978 | 23.59102 | 35092 ft | 500 kts | 135° |
| 2026-04-29 14:13 | 39.97163 | 23.65647 | 35096 ft | 500 kts | 135° |
| 2026-04-29 14:14 | 39.92348 | 23.72179 | 35097 ft | 500 kts | 135° |
| 2026-04-29 14:14 | 39.87522 | 23.78702 | 35092 ft | 500 kts | 135° |
| 2026-04-29 14:15 | 39.82697 | 23.85206 | 35087 ft | 499 kts | 135° |
| 2026-04-29 14:15 | 39.77871 | 23.91707 | 35101 ft | 499 kts | 135° |
| 2026-04-29 14:16 | 39.73042 | 23.98194 | 35097 ft | 499 kts | 135° |
| 2026-04-29 14:16 | 39.68214 | 24.04669 | 35097 ft | 499 kts | 135° |
| 2026-04-29 14:17 | 39.63387 | 24.11129 | 35098 ft | 499 kts | 135° |
| 2026-04-29 14:17 | 39.59365 | 24.16492 | 35086 ft | 499 kts | 135° |
| 2026-04-29 14:18 | 39.54524 | 24.22938 | 35097 ft | 498 kts | 135° |
| 2026-04-29 14:18 | 39.48905 | 24.30413 | 35099 ft | 498 kts | 135° |
| 2026-04-29 14:19 | 39.44879 | 24.35760 | 35099 ft | 498 kts | 135° |
| 2026-04-29 14:19 | 39.40043 | 24.42169 | 35099 ft | 498 kts | 135° |
| 2026-04-29 14:20 | 39.35209 | 24.48563 | 35098 ft | 497 kts | 135° |
| 2026-04-29 14:20 | 39.30373 | 24.54960 | 35094 ft | 497 kts | 135° |
| 2026-04-29 14:21 | 39.25571 | 24.61373 | 35097 ft | 497 kts | 135° |
| 2026-04-29 14:21 | 39.20778 | 24.67796 | 35099 ft | 496 kts | 135° |
| 2026-04-29 14:22 | 39.15989 | 24.74196 | 35100 ft | 496 kts | 135° |
| 2026-04-29 14:22 | 39.11176 | 24.80579 | 35098 ft | 496 kts | 135° |
| 2026-04-29 14:23 | 39.06344 | 24.86914 | 35095 ft | 496 kts | 136° |
| 2026-04-29 14:23 | 39.01499 | 24.93161 | 35094 ft | 496 kts | 136° |
| 2026-04-29 14:24 | 38.96627 | 24.99438 | 35087 ft | 495 kts | 136° |
| 2026-04-29 14:24 | 38.91772 | 25.05721 | 35093 ft | 495 kts | 136° |
| 2026-04-29 14:25 | 38.86919 | 25.11995 | 35094 ft | 495 kts | 136° |
| 2026-04-29 14:25 | 38.82053 | 25.18260 | 35093 ft | 495 kts | 136° |
| 2026-04-29 14:26 | 38.77187 | 25.24499 | 35093 ft | 495 kts | 136° |
| 2026-04-29 14:26 | 38.72318 | 25.30735 | 35087 ft | 495 kts | 136° |
| 2026-04-29 14:27 | 38.67453 | 25.36960 | 35084 ft | 494 kts | 136° |
| 2026-04-29 14:28 | 38.60146 | 25.46269 | 35090 ft | 494 kts | 136° |
| 2026-04-29 14:28 | 38.55279 | 25.52466 | 35089 ft | 494 kts | 136° |
| 2026-04-29 14:29 | 38.50409 | 25.58652 | 35083 ft | 494 kts | 136° |
| 2026-04-29 14:29 | 38.45537 | 25.64826 | 35081 ft | 494 kts | 136° |
| 2026-04-29 14:30 | 38.40691 | 25.70954 | 35070 ft | 494 kts | 136° |
| 2026-04-29 14:30 | 38.35815 | 25.77114 | 35072 ft | 493 kts | 136° |
| 2026-04-29 14:31 | 38.30945 | 25.83265 | 35077 ft | 493 kts | 136° |
| 2026-04-29 14:31 | 38.25882 | 25.89133 | 35070 ft | 491 kts | 147° |
| 2026-04-29 14:32 | 38.19851 | 25.93022 | 35070 ft | 485 kts | 163° |
| 2026-04-29 14:32 | 38.13486 | 25.95882 | 35059 ft | 485 kts | 163° |
| 2026-04-29 14:33 | 38.07127 | 25.98771 | 35066 ft | 485 kts | 162° |
| 2026-04-29 14:33 | 38.00779 | 26.01668 | 35066 ft | 485 kts | 162° |
| 2026-04-29 14:34 | 37.94428 | 26.04563 | 35065 ft | 485 kts | 162° |
| 2026-04-29 14:34 | 37.88072 | 26.07446 | 35054 ft | 485 kts | 162° |
| 2026-04-29 14:35 | 37.81716 | 26.10312 | 35059 ft | 485 kts | 162° |
| 2026-04-29 14:35 | 37.75357 | 26.13179 | 35060 ft | 485 kts | 162° |
| 2026-04-29 14:36 | 37.69001 | 26.16053 | 35060 ft | 485 kts | 162° |
| 2026-04-29 14:36 | 37.62684 | 26.18901 | 35061 ft | 485 kts | 162° |
| 2026-04-29 14:37 | 37.56335 | 26.21756 | 34875 ft | 482 kts | 162° |
| 2026-04-29 14:37 | 37.53195 | 26.23165 | 34516 ft | 473 kts | 162° |
| 2026-04-29 14:37 | 37.50145 | 26.24532 | 34424 ft | 458 kts | 162° |
| 2026-04-29 14:37 | 37.47178 | 26.25861 | 33961 ft | 452 kts | 162° |
| 2026-04-29 14:38 | 37.44193 | 26.27190 | 32970 ft | 457 kts | 162° |
| 2026-04-29 14:38 | 37.41175 | 26.28530 | 31956 ft | 463 kts | 162° |
| 2026-04-29 14:38 | 37.38114 | 26.29889 | 30899 ft | 469 kts | 162° |
| 2026-04-29 14:38 | 37.35024 | 26.31260 | 29762 ft | 474 kts | 162° |
| 2026-04-29 14:39 | 37.31900 | 26.32647 | 28480 ft | 479 kts | 162° |
| 2026-04-29 14:39 | 37.28748 | 26.34052 | 27248 ft | 482 kts | 161° |
| 2026-04-29 14:39 | 37.25575 | 26.35466 | 25959 ft | 486 kts | 161° |
| 2026-04-29 14:39 | 37.22377 | 26.36890 | 24707 ft | 489 kts | 161° |
| 2026-04-29 14:40 | 37.19162 | 26.38318 | 23469 ft | 491 kts | 162° |
| 2026-04-29 14:40 | 37.15944 | 26.39747 | 22424 ft | 486 kts | 162° |
| 2026-04-29 14:40 | 37.12783 | 26.41151 | 21533 ft | 479 kts | 162° |
| 2026-04-29 14:40 | 37.09662 | 26.42533 | 20644 ft | 473 kts | 162° |
| 2026-04-29 14:41 | 37.06583 | 26.43890 | 19780 ft | 467 kts | 162° |
| 2026-04-29 14:41 | 37.03537 | 26.45233 | 18949 ft | 462 kts | 162° |
| 2026-04-29 14:41 | 37.00519 | 26.46564 | 18081 ft | 456 kts | 162° |
| 2026-04-29 14:41 | 36.97547 | 26.47876 | 17120 ft | 450 kts | 162° |
| 2026-04-29 14:42 | 36.94623 | 26.49191 | 16256 ft | 443 kts | 159° |
| 2026-04-29 14:42 | 36.91934 | 26.50953 | 15616 ft | 432 kts | 147° |
| 2026-04-29 14:42 | 36.89621 | 26.53280 | 15003 ft | 423 kts | 136° |
| 2026-04-29 14:42 | 36.87752 | 26.56058 | 14408 ft | 414 kts | 124° |
| 2026-04-29 14:43 | 36.86359 | 26.59150 | 13827 ft | 404 kts | 114° |
| 2026-04-29 14:43 | 36.85263 | 26.62336 | 13174 ft | 395 kts | 112° |
| 2026-04-29 14:43 | 36.84208 | 26.65411 | 12534 ft | 386 kts | 112° |
| 2026-04-29 14:43 | 36.83021 | 26.68374 | 11900 ft | 378 kts | 121° |
| 2026-04-29 14:44 | 36.81483 | 26.70992 | 11278 ft | 371 kts | 130° |
| 2026-04-29 14:44 | 36.79767 | 26.73355 | 10669 ft | 364 kts | 131° |
| 2026-04-29 14:44 | 36.78082 | 26.75670 | 10083 ft | 357 kts | 131° |
| 2026-04-29 14:44 | 36.76444 | 26.77923 | 9657 ft | 345 kts | 131° |
| 2026-04-29 14:45 | 36.74855 | 26.80107 | 9213 ft | 333 kts | 130° |
| 2026-04-29 14:45 | 36.73326 | 26.82208 | 8777 ft | 322 kts | 130° |
| 2026-04-29 14:45 | 36.71757 | 26.84133 | 8348 ft | 313 kts | 139° |
| 2026-04-29 14:45 | 36.70077 | 26.85801 | 7923 ft | 305 kts | 140° |
| 2026-04-29 14:46 | 36.68427 | 26.87398 | 7541 ft | 296 kts | 141° |
| 2026-04-29 14:46 | 36.66837 | 26.88956 | 7259 ft | 285 kts | 140° |
| 2026-04-29 14:46 | 36.65330 | 26.90480 | 7014 ft | 273 kts | 133° |
| 2026-04-29 14:46 | 36.64269 | 26.92347 | 6776 ft | 258 kts | 111° |
| 2026-04-29 14:47 | 36.63719 | 26.94420 | 6538 ft | 247 kts | 103° |
| 2026-04-29 14:47 | 36.63233 | 26.96427 | 6303 ft | 237 kts | 103° |
| 2026-04-29 14:47 | 36.62765 | 26.98371 | 6075 ft | 231 kts | 103° |
| 2026-04-29 14:47 | 36.62462 | 26.99633 | 5927 ft | 228 kts | 103° |
| 2026-04-29 14:48 | 36.61862 | 27.02135 | 5616 ft | 223 kts | 104° |
| 2026-04-29 14:48 | 36.61417 | 27.03985 | 5402 ft | 223 kts | 103° |
| 2026-04-29 14:48 | 36.60975 | 27.05827 | 5181 ft | 222 kts | 103° |
| 2026-04-29 14:48 | 36.60537 | 27.07653 | 4963 ft | 221 kts | 103° |
| 2026-04-29 14:49 | 36.60098 | 27.09479 | 4742 ft | 219 kts | 103° |
| 2026-04-29 14:49 | 36.59667 | 27.11277 | 4511 ft | 215 kts | 102° |
| 2026-04-29 14:49 | 36.59516 | 27.13091 | 4285 ft | 207 kts | 82° |
| 2026-04-29 14:49 | 36.59806 | 27.14799 | 4125 ft | 198 kts | 64° |
| 2026-04-29 14:50 | 36.60308 | 27.16390 | 3960 ft | 197 kts | 65° |
| 2026-04-29 14:50 | 36.60797 | 27.17971 | 3811 ft | 197 kts | 67° |
| 2026-04-29 14:50 | 36.61292 | 27.19570 | 3638 ft | 198 kts | 66° |
| 2026-04-29 14:50 | 36.62104 | 27.20898 | 3458 ft | 194 kts | 32° |
| 2026-04-29 14:51 | 36.63360 | 27.21309 | 3287 ft | 186 kts | 356° |
| 2026-04-29 14:51 | 36.64552 | 27.20741 | 3142 ft | 186 kts | 329° |
| 2026-04-29 14:51 | 36.65641 | 27.19892 | 2989 ft | 183 kts | 329° |
| 2026-04-29 14:51 | 36.66695 | 27.19068 | 2834 ft | 175 kts | 329° |
| 2026-04-29 14:52 | 36.67706 | 27.18272 | 2688 ft | 169 kts | 330° |
| 2026-04-29 14:52 | 36.68671 | 27.17513 | 2581 ft | 164 kts | 329° |
| 2026-04-29 14:52 | 36.69614 | 27.16772 | 2507 ft | 156 kts | 330° |
| 2026-04-29 14:52 | 36.70520 | 27.16066 | 2274 ft | 149 kts | 331° |
| 2026-04-29 14:53 | 36.71374 | 27.15403 | 2058 ft | 140 kts | 332° |
| 2026-04-29 14:53 | 36.72179 | 27.14778 | 1874 ft | 133 kts | 331° |
| 2026-04-29 14:53 | 36.72936 | 27.14188 | 1699 ft | 126 kts | 331° |
| 2026-04-29 14:53 | 36.73671 | 27.13617 | 1522 ft | 124 kts | 331° |
| 2026-04-29 14:54 | 36.74400 | 27.13051 | 1363 ft | 123 kts | 330° |
| 2026-04-29 14:54 | 36.75125 | 27.12488 | 1205 ft | 122 kts | 329° |
| 2026-04-29 14:54 | 36.75846 | 27.11927 | 1045 ft | 122 kts | 329° |
| 2026-04-29 14:54 | 36.76565 | 27.11369 | 883 ft | 122 kts | 331° |
| 2026-04-29 14:55 | 36.77286 | 27.10809 | 717 ft | 123 kts | 329° |
| 2026-04-29 14:55 | 36.78007 | 27.10249 | 545 ft | 122 kts | 329° |
| 2026-04-29 14:55 | 36.78716 | 27.09684 | 409 ft | 119 kts | 329° |
| 2026-04-29 14:55 | 36.79311 | 27.09222 | 411 ft | 72 kts | 328° |
| 2026-04-29 14:56 | 36.79569 | 27.09022 | 418 ft | 33 kts | 328° |
| 2026-04-29 14:56 | 36.79750 | 27.08882 | 418 ft | 29 kts | 328° |
| 2026-04-29 14:56 | 36.79914 | 27.08755 | 413 ft | 27 kts | 328° |
| 2026-04-29 14:56 | 36.80073 | 27.08633 | 417 ft | 26 kts | 329° |
| 2026-04-29 14:57 | 36.80220 | 27.08519 | 413 ft | 24 kts | 327° |
| 2026-04-29 14:57 | 36.80330 | 27.08448 | 419 ft | 12 kts | 7° |
| 2026-04-29 14:57 | 36.80351 | 27.08536 | 421 ft | 12 kts | 104° |
| 2026-04-29 14:57 | 36.80329 | 27.08643 | 416 ft | 13 kts | 103° |
| 2026-04-29 14:58 | 36.80269 | 27.08724 | 417 ft | 14 kts | 148° |
| 2026-04-29 14:58 | 36.80187 | 27.08787 | 420 ft | 14 kts | 148° |
| 2026-04-29 14:58 | 36.80118 | 27.08844 | 415 ft | 7 kts | 135° |
| 2026-04-29 14:58 | 36.80131 | 27.08898 | 412 ft | 7 kts | 55° |
| 2026-04-29 14:59 | 36.80147 | 27.08929 | 418 ft | 2 kts | 58° |
| 2026-04-29 14:59 | 36.80148 | 27.08932 | 414 ft | 0 kts | 58° |